createdAt,value
2019-04-30T00:01:32.214Z,94.75
2019-04-30T00:04:21.642Z,95.12
2019-04-30T00:06:52.341Z,95.64
2019-04-30T00:09:25.527Z,95.53
2019-04-30T00:12:01.025Z,95.92
2019-04-30T00:14:36.864Z,96.16
2019-04-30T00:17:00.836Z,96.13
2019-04-30T00:19:31.375Z,96.07
2019-04-30T00:22:01.926Z,96.36
2019-04-30T00:24:32.523Z,96.18
2019-04-30T00:27:05.014Z,96.41
2019-04-30T00:29:35.609Z,96.68
2019-04-30T00:32:07.860Z,96.53
2019-04-30T00:34:41.109Z,96.23
2019-04-30T00:37:13.822Z,96.31
2019-04-30T00:39:50.729Z,96.47
2019-04-30T00:42:17.276Z,96.73
2019-04-30T00:44:48.683Z,97.01
2019-04-30T00:47:19.253Z,97.39
2019-04-30T00:49:52.134Z,97.25
2019-04-30T00:52:22.124Z,97.09
2019-04-30T00:54:52.729Z,97.14
2019-04-30T00:57:26.537Z,96.98
2019-04-30T00:59:55.723Z,96.97
2019-04-30T01:02:55.581Z,97.01
2019-04-30T01:05:27.696Z,97.00
2019-04-30T01:07:58.378Z,97.13
2019-04-30T01:10:29.021Z,97.47
2019-04-30T01:13:07.364Z,97.93
2019-04-30T01:15:31.883Z,97.91
2019-04-30T01:18:02.423Z,97.98
2019-04-30T01:20:33.101Z,98.25
2019-04-30T01:23:08.002Z,98.29
2019-04-30T01:25:36.167Z,99.36
2019-04-30T01:28:08.382Z,99.09
2019-04-30T01:30:39.478Z,99.09
2019-04-30T01:33:11.301Z,98.88
2019-04-30T01:35:42.001Z,99.12
2019-04-30T01:38:12.923Z,99.31
2019-04-30T01:40:47.435Z,99.40
2019-04-30T01:43:23.111Z,99.75
2019-04-30T01:45:49.683Z,99.67
2019-04-30T01:48:20.212Z,100.00
2019-04-30T01:50:50.800Z,100.00
2019-04-30T01:53:21.405Z,99.95
2019-04-30T01:56:14.006Z,99.99
2019-04-30T01:58:51.820Z,100.00
2019-04-30T02:01:23.842Z,100.00
2019-04-30T02:03:54.400Z,100.00
2019-04-30T02:06:25.021Z,100.00
2019-04-30T02:08:55.628Z,100.00
2019-04-30T02:11:26.228Z,100.00
2019-04-30T02:13:56.793Z,100.00
2019-04-30T02:16:28.961Z,100.00
2019-04-30T02:18:59.810Z,100.00
2019-04-30T02:21:33.239Z,100.00
2019-04-30T02:24:02.717Z,100.00
2019-04-30T02:26:33.346Z,100.00
2019-04-30T02:29:03.883Z,100.00
2019-04-30T02:31:34.535Z,100.00
2019-04-30T02:34:23.313Z,100.00
2019-04-30T02:37:09.651Z,100.00
2019-04-30T02:39:40.273Z,100.00
2019-04-30T02:42:13.446Z,100.00
2019-04-30T02:44:46.110Z,100.00
2019-04-30T02:47:20.312Z,100.00
2019-04-30T02:49:53.613Z,100.00
2019-04-30T02:52:29.300Z,100.00
2019-04-30T02:55:04.114Z,100.00
2019-04-30T02:57:34.677Z,100.00
2019-04-30T03:00:09.962Z,100.00
2019-04-30T03:02:40.791Z,100.00
2019-04-30T03:05:13.534Z,100.00
2019-04-30T03:07:43.969Z,100.00
2019-04-30T03:10:14.719Z,100.00
2019-04-30T03:12:45.311Z,100.00
2019-04-30T03:15:15.924Z,100.00
2019-04-30T03:17:52.819Z,100.00
2019-04-30T03:20:42.054Z,100.00
2019-04-30T03:23:12.641Z,100.00
2019-04-30T03:25:43.209Z,100.00
2019-04-30T03:28:13.841Z,100.00
2019-04-30T03:30:44.409Z,100.00
2019-04-30T03:33:15.014Z,100.00
2019-04-30T03:35:47.711Z,100.00
2019-04-30T03:38:20.298Z,100.00
2019-04-30T03:40:50.434Z,100.00
2019-04-30T03:43:21.058Z,100.00
2019-04-30T03:45:51.644Z,100.00
2019-04-30T03:48:22.254Z,100.00
2019-04-30T03:50:56.572Z,100.00
2019-04-30T03:53:25.106Z,100.00
2019-04-30T03:55:55.680Z,100.00
2019-04-30T03:58:26.290Z,100.00
2019-04-30T04:01:09.908Z,100.00
2019-04-30T04:04:00.399Z,100.00
2019-04-30T04:06:39.657Z,100.00
2019-04-30T04:09:21.928Z,100.00
2019-04-30T04:11:50.835Z,100.00
2019-04-30T04:14:21.651Z,100.00
2019-04-30T04:16:52.176Z,100.00
2019-04-30T04:19:22.771Z,100.00
2019-04-30T04:21:53.349Z,100.00
2019-04-30T04:24:23.954Z,100.00
2019-04-30T04:26:54.524Z,100.00
2019-04-30T04:29:25.111Z,100.00
2019-04-30T04:31:55.662Z,100.00
2019-04-30T04:34:26.317Z,100.00
2019-04-30T04:37:00.019Z,100.00
2019-04-30T04:39:30.133Z,100.00
2019-04-30T04:42:00.704Z,99.92
2019-04-30T04:44:31.323Z,99.30
2019-04-30T04:47:01.892Z,99.14
2019-04-30T04:49:32.515Z,98.96
2019-04-30T04:52:03.055Z,98.81
2019-04-30T04:54:33.633Z,98.74
2019-04-30T04:57:14.894Z,98.19
2019-04-30T04:59:36.591Z,98.09
2019-04-30T05:02:24.755Z,97.49
2019-04-30T05:04:56.019Z,97.39
2019-04-30T05:07:28.516Z,97.36
2019-04-30T05:10:01.614Z,97.51
2019-04-30T05:12:32.272Z,97.42
2019-04-30T05:15:02.870Z,97.51
2019-04-30T05:17:33.419Z,97.41
2019-04-30T05:20:04.111Z,97.00
2019-04-30T05:22:34.688Z,96.33
2019-04-30T05:25:05.400Z,96.13
2019-04-30T05:27:35.935Z,95.82
2019-04-30T05:30:09.692Z,96.00
2019-04-30T05:32:39.913Z,96.05
2019-04-30T05:35:10.840Z,95.50
2019-04-30T05:37:41.362Z,95.06
2019-04-30T05:40:13.704Z,94.00
2019-04-30T05:42:44.277Z,91.75
2019-04-30T05:45:15.849Z,92.07
2019-04-30T05:47:50.580Z,92.15
2019-04-30T05:50:21.276Z,92.77
2019-04-30T05:52:51.807Z,92.51
2019-04-30T05:55:22.401Z,91.60
2019-04-30T05:57:56.244Z,90.61
2019-04-30T06:00:25.291Z,89.42
2019-04-30T06:02:55.943Z,89.35
2019-04-30T06:05:28.498Z,88.73
2019-04-30T06:07:59.402Z,88.96
2019-04-30T06:10:36.667Z,89.11
2019-04-30T06:13:14.576Z,87.37
2019-04-30T06:15:58.843Z,86.72
2019-04-30T06:18:29.494Z,87.68
2019-04-30T06:21:01.063Z,87.79
2019-04-30T06:23:31.637Z,87.54
2019-04-30T06:26:09.716Z,87.24
2019-04-30T06:28:35.392Z,87.14
2019-04-30T06:31:06.104Z,87.76
2019-04-30T06:33:38.751Z,87.02
2019-04-30T06:36:11.184Z,86.64
2019-04-30T06:38:41.525Z,87.43
2019-04-30T06:41:12.108Z,85.37
2019-04-30T06:43:42.764Z,85.66
2019-04-30T06:46:13.447Z,85.55
2019-04-30T06:48:51.045Z,85.37
2019-04-30T06:51:21.766Z,85.36
2019-04-30T06:53:52.329Z,85.24
2019-04-30T06:56:23.017Z,84.88
2019-04-30T06:58:53.546Z,85.12
2019-04-30T07:01:29.051Z,85.46
2019-04-30T07:04:01.004Z,85.09
2019-04-30T07:06:36.739Z,84.84
2019-04-30T07:09:49.847Z,83.88
2019-04-30T07:12:29.831Z,84.57
2019-04-30T07:14:59.348Z,84.00
2019-04-30T07:17:29.881Z,83.56
2019-04-30T07:20:00.463Z,81.72
2019-04-30T07:22:39.800Z,82.35
2019-04-30T07:25:03.431Z,81.01
2019-04-30T07:27:33.936Z,81.47
2019-04-30T07:30:04.841Z,81.99
2019-04-30T07:32:35.477Z,81.37
2019-04-30T07:35:06.626Z,81.41
2019-04-30T07:37:39.077Z,80.68
2019-04-30T07:40:10.011Z,81.01
2019-04-30T07:42:44.860Z,80.90
2019-04-30T07:45:12.865Z,79.58
2019-04-30T07:47:43.445Z,79.44
2019-04-30T07:50:14.534Z,80.14
2019-04-30T07:52:58.847Z,80.46
2019-04-30T07:55:19.635Z,80.19
2019-04-30T07:57:50.700Z,80.96
2019-04-30T08:00:21.368Z,81.27
2019-04-30T08:03:00.324Z,82.03
2019-04-30T08:05:35.519Z,81.98
2019-04-30T08:08:20.191Z,81.88
2019-04-30T08:10:39.664Z,80.66
2019-04-30T08:13:15.751Z,81.55
2019-04-30T08:15:51.528Z,80.52
2019-04-30T08:18:26.252Z,80.37
2019-04-30T08:21:01.031Z,80.64
2019-04-30T08:23:36.808Z,81.03
2019-04-30T08:26:05.853Z,81.44
2019-04-30T08:28:38.488Z,81.92
2019-04-30T08:31:09.073Z,81.07
2019-04-30T08:33:42.758Z,81.58
2019-04-30T08:36:13.379Z,81.26
2019-04-30T08:38:43.959Z,80.46
2019-04-30T08:41:14.865Z,81.54
2019-04-30T08:43:49.754Z,80.40
2019-04-30T08:46:20.494Z,79.01
2019-04-30T08:48:53.706Z,78.42
2019-04-30T08:51:23.488Z,78.44
2019-04-30T08:53:54.009Z,78.31
2019-04-30T08:56:24.629Z,77.75
2019-04-30T08:58:55.183Z,77.03
2019-04-30T09:01:25.805Z,76.60
2019-04-30T09:03:56.472Z,76.72
2019-04-30T09:06:29.076Z,75.61
2019-04-30T09:09:18.745Z,76.79
2019-04-30T09:11:55.188Z,76.14
2019-04-30T09:14:21.971Z,75.67
2019-04-30T09:16:55.330Z,75.36
2019-04-30T09:19:25.923Z,75.38
2019-04-30T09:21:56.525Z,74.89
2019-04-30T09:24:30.715Z,74.36
2019-04-30T09:26:59.440Z,73.40
2019-04-30T09:29:29.941Z,73.16
2019-04-30T09:32:00.562Z,72.10
2019-04-30T09:34:31.152Z,71.77
2019-04-30T09:37:01.841Z,71.80
2019-04-30T09:39:32.460Z,71.20
2019-04-30T09:42:03.072Z,70.06
2019-04-30T09:44:33.631Z,69.47
2019-04-30T09:47:04.377Z,70.37
2019-04-30T09:49:34.926Z,71.10
2019-04-30T09:52:05.954Z,68.60
2019-04-30T09:54:36.509Z,67.14
2019-04-30T09:57:08.777Z,66.06
2019-04-30T09:59:39.462Z,68.53
2019-04-30T10:02:10.806Z,69.48
2019-04-30T10:04:41.722Z,68.44
2019-04-30T10:07:15.737Z,62.27
2019-04-30T10:09:46.329Z,62.62
2019-04-30T10:12:16.978Z,61.81
2019-04-30T10:14:54.705Z,60.93
2019-04-30T10:17:34.714Z,62.31
2019-04-30T10:20:07.544Z,61.39
2019-04-30T10:22:39.899Z,60.97
2019-04-30T10:25:11.515Z,62.66
2019-04-30T10:27:42.185Z,64.61
2019-04-30T10:30:13.954Z,64.78
2019-04-30T10:32:44.543Z,62.70
2019-04-30T10:35:18.342Z,61.86
2019-04-30T10:37:49.954Z,61.42
2019-04-30T10:40:20.555Z,60.56
2019-04-30T10:42:51.113Z,61.84
2019-04-30T10:45:21.732Z,61.48
2019-04-30T10:47:53.688Z,61.40
2019-04-30T10:50:25.935Z,61.12
2019-04-30T10:52:56.546Z,62.73
2019-04-30T10:55:28.681Z,62.79
2019-04-30T10:57:59.735Z,63.61
2019-04-30T11:00:41.566Z,60.78
2019-04-30T11:03:20.001Z,61.00
2019-04-30T11:05:48.831Z,61.00
2019-04-30T11:08:19.544Z,61.88
2019-04-30T11:10:50.090Z,61.66
2019-04-30T11:13:20.713Z,62.61
2019-04-30T11:15:51.240Z,63.76
2019-04-30T11:18:22.101Z,64.94
2019-04-30T11:20:53.013Z,63.78
2019-04-30T11:23:23.795Z,64.38
2019-04-30T11:25:55.152Z,62.10
2019-04-30T11:28:26.551Z,60.44
2019-04-30T11:31:16.904Z,59.94
2019-04-30T11:33:51.062Z,61.89
2019-04-30T11:36:21.668Z,60.50
2019-04-30T11:38:52.197Z,62.34
2019-04-30T11:41:31.098Z,62.45
2019-04-30T11:43:55.084Z,60.87
2019-04-30T11:47:19.417Z,59.96
2019-04-30T11:49:50.131Z,60.26
2019-04-30T11:52:21.977Z,61.50
2019-04-30T11:54:54.978Z,62.08
2019-04-30T11:57:25.682Z,60.51
2019-04-30T11:59:56.267Z,59.25
2019-04-30T12:02:46.092Z,59.21
2019-04-30T12:05:20.851Z,59.46
2019-04-30T12:07:57.072Z,58.66
2019-04-30T12:10:56.196Z,58.82
2019-04-30T12:13:29.979Z,57.90
2019-04-30T12:16:01.393Z,58.76
2019-04-30T12:18:33.325Z,57.55
2019-04-30T12:21:06.204Z,56.80
2019-04-30T12:23:36.785Z,56.56
2019-04-30T12:26:09.340Z,58.46
2019-04-30T12:28:40.219Z,59.71
2019-04-30T12:31:10.842Z,59.14
2019-04-30T12:33:41.466Z,60.25
2019-04-30T12:36:12.071Z,60.21
2019-04-30T12:38:42.677Z,59.39
2019-04-30T12:41:14.779Z,56.77
2019-04-30T12:43:45.284Z,56.34
2019-04-30T12:46:15.973Z,58.07
2019-04-30T12:49:00.974Z,57.87
2019-04-30T12:51:50.641Z,56.97
2019-04-30T12:54:46.487Z,56.82
2019-04-30T12:57:26.049Z,56.72
2019-04-30T12:59:58.502Z,58.17
2019-04-30T13:02:29.143Z,56.10
2019-04-30T13:05:00.564Z,55.33
2019-04-30T13:07:31.794Z,54.79
2019-04-30T13:10:03.798Z,57.25
2019-04-30T13:12:35.679Z,55.57
2019-04-30T13:15:09.229Z,54.11
2019-04-30T13:17:39.846Z,50.96
2019-04-30T13:20:18.796Z,52.61
2019-04-30T13:22:44.369Z,53.03
2019-04-30T13:25:27.228Z,53.29
2019-04-30T13:27:51.719Z,52.61
2019-04-30T13:30:30.185Z,54.18
2019-04-30T13:33:09.540Z,51.71
2019-04-30T13:35:41.698Z,53.67
2019-04-30T13:38:26.507Z,52.50
2019-04-30T13:41:19.104Z,52.14
2019-04-30T13:44:01.436Z,53.30
2019-04-30T13:46:32.007Z,52.91
2019-04-30T13:49:03.979Z,50.87
2019-04-30T13:51:35.828Z,51.94
2019-04-30T13:54:06.819Z,50.82
2019-04-30T13:56:39.542Z,49.61
2019-04-30T13:59:11.439Z,49.71
2019-04-30T14:01:41.995Z,47.86
2019-04-30T14:04:43.630Z,49.64
2019-04-30T14:07:42.347Z,48.84
2019-04-30T14:10:13.810Z,49.21
2019-04-30T14:12:57.550Z,50.37
2019-04-30T14:15:34.460Z,47.19
2019-04-30T14:18:06.519Z,47.41
2019-04-30T14:20:42.814Z,46.72
2019-04-30T14:23:13.484Z,46.37
2019-04-30T14:25:55.967Z,46.88
2019-04-30T14:28:23.928Z,46.40
2019-04-30T14:30:56.932Z,47.17
2019-04-30T14:33:29.377Z,46.74
2019-04-30T14:36:00.869Z,46.13
2019-04-30T14:38:35.772Z,47.20
2019-04-30T14:41:08.044Z,47.27
2019-04-30T14:43:51.278Z,45.71
2019-04-30T14:46:41.337Z,45.67
2019-04-30T14:49:30.073Z,44.06
2019-04-30T14:52:02.933Z,45.52
2019-04-30T14:54:55.644Z,44.38
2019-04-30T14:57:51.101Z,44.23
2019-04-30T15:00:39.827Z,43.89
2019-04-30T15:03:14.292Z,43.26
2019-04-30T15:05:50.954Z,43.68
2019-04-30T15:08:19.407Z,45.57
2019-04-30T15:10:52.404Z,44.20
2019-04-30T15:13:23.359Z,42.75
2019-04-30T15:15:54.187Z,43.35
2019-04-30T15:18:26.076Z,42.71
2019-04-30T15:20:56.816Z,42.86
2019-04-30T15:23:59.540Z,43.55
2019-04-30T15:26:29.073Z,43.04
2019-04-30T15:29:12.187Z,43.63
2019-04-30T15:31:42.547Z,42.90
2019-04-30T15:34:14.254Z,43.76
2019-04-30T15:36:45.030Z,41.88
2019-04-30T15:39:39.365Z,42.94
2019-04-30T15:42:18.829Z,42.14
2019-04-30T15:44:51.778Z,42.29
2019-04-30T15:47:23.643Z,42.41
2019-04-30T15:49:59.606Z,42.52
2019-04-30T15:52:31.252Z,43.15
2019-04-30T15:55:03.189Z,43.81
2019-04-30T15:57:36.795Z,43.10
2019-04-30T16:00:09.585Z,42.37
2019-04-30T16:02:56.528Z,44.04
2019-04-30T16:05:33.568Z,44.22
2019-04-30T16:08:29.401Z,43.92
2019-04-30T16:11:10.331Z,44.13
2019-04-30T16:14:05.476Z,44.85
2019-04-30T16:16:37.934Z,45.27
2019-04-30T16:19:09.186Z,44.86
2019-04-30T16:21:39.888Z,43.76
2019-04-30T16:24:11.906Z,44.18
2019-04-30T16:26:52.133Z,45.63
2019-04-30T16:29:25.210Z,45.11
2019-04-30T16:31:59.022Z,47.09
2019-04-30T16:34:30.441Z,46.28
2019-04-30T16:37:02.363Z,45.54
2019-04-30T16:39:33.005Z,46.21
2019-04-30T16:42:04.952Z,45.98
2019-04-30T16:44:37.961Z,46.09
2019-04-30T16:47:16.085Z,47.57
2019-04-30T16:49:42.566Z,46.88
2019-04-30T16:52:14.465Z,45.89
2019-04-30T16:54:45.240Z,47.37
2019-04-30T16:57:18.059Z,47.17
2019-04-30T16:59:53.164Z,47.86
2019-04-30T17:02:24.727Z,47.17
2019-04-30T17:05:03.310Z,47.23
2019-04-30T17:07:45.041Z,47.98
2019-04-30T17:10:33.709Z,48.38
2019-04-30T17:13:20.040Z,47.88
2019-04-30T17:15:52.542Z,47.61
2019-04-30T17:18:24.518Z,48.43
2019-04-30T17:20:55.346Z,48.21
2019-04-30T17:23:29.197Z,49.61
2019-04-30T17:26:00.828Z,48.18
2019-04-30T17:28:31.568Z,52.50
2019-04-30T17:31:02.231Z,52.20
2019-04-30T17:33:34.301Z,51.27
2019-04-30T17:36:08.343Z,52.21
2019-04-30T17:38:44.786Z,54.61
2019-04-30T17:41:16.730Z,55.26
2019-04-30T17:43:49.441Z,55.69
2019-04-30T17:46:20.221Z,56.11
2019-04-30T17:48:52.273Z,55.66
2019-04-30T17:51:23.028Z,54.32
2019-04-30T17:54:14.115Z,55.43
2019-04-30T17:56:47.184Z,57.13
2019-04-30T17:59:18.115Z,57.55
2019-04-30T18:01:59.643Z,58.03
2019-04-30T18:04:31.861Z,57.51
2019-04-30T18:07:05.299Z,58.96
2019-04-30T18:09:35.950Z,59.79
2019-04-30T18:12:09.386Z,59.66
2019-04-30T18:14:41.722Z,61.29
2019-04-30T18:17:12.620Z,61.15
2019-04-30T18:20:02.486Z,61.91
2019-04-30T18:22:57.595Z,62.30
2019-04-30T18:25:51.848Z,62.66
2019-04-30T18:28:23.787Z,63.71
2019-04-30T18:30:58.803Z,63.47
2019-04-30T18:33:47.081Z,65.08
2019-04-30T18:36:19.529Z,66.12
2019-04-30T18:38:51.798Z,65.39
2019-04-30T18:41:22.608Z,65.83
2019-04-30T18:43:55.041Z,65.97
2019-04-30T18:46:26.116Z,65.27
2019-04-30T18:48:59.210Z,66.05
2019-04-30T18:51:38.941Z,66.06
2019-04-30T18:54:04.719Z,66.30
2019-04-30T18:56:36.739Z,66.59
2019-04-30T18:59:08.875Z,66.90
2019-04-30T19:01:39.967Z,67.91
2019-04-30T19:04:10.951Z,67.92
2019-04-30T19:06:41.740Z,68.22
2019-04-30T19:09:31.091Z,68.92
2019-04-30T19:12:25.477Z,69.89
2019-04-30T19:15:19.686Z,69.71
2019-04-30T19:18:19.593Z,70.12
2019-04-30T19:20:56.673Z,70.43
2019-04-30T19:23:34.184Z,71.11
2019-04-30T19:26:05.029Z,71.20
2019-04-30T19:28:38.707Z,71.41
2019-04-30T19:31:11.686Z,71.92
2019-04-30T19:33:44.180Z,71.78
2019-04-30T19:36:18.485Z,72.26
2019-04-30T19:38:51.868Z,72.89
2019-04-30T19:41:23.698Z,72.86
2019-04-30T19:43:55.696Z,72.98
2019-04-30T19:46:33.344Z,73.83
2019-04-30T19:49:14.335Z,74.23
2019-04-30T19:51:47.157Z,74.28
2019-04-30T19:54:21.758Z,74.46
2019-04-30T19:56:53.551Z,74.80
2019-04-30T19:59:30.470Z,75.04
2019-04-30T20:02:03.177Z,75.21
2019-04-30T20:04:36.474Z,75.89
2019-04-30T20:07:10.816Z,75.96
2019-04-30T20:09:43.089Z,76.21
2019-04-30T20:12:18.817Z,76.90
2019-04-30T20:14:53.714Z,77.33
2019-04-30T20:17:26.500Z,77.43
2019-04-30T20:19:58.920Z,77.35
2019-04-30T20:22:31.615Z,78.26
2019-04-30T20:25:03.567Z,78.34
2019-04-30T20:27:41.241Z,79.39
2019-04-30T20:30:20.783Z,79.61
2019-04-30T20:32:51.742Z,80.17
2019-04-30T20:35:26.402Z,80.54
2019-04-30T20:38:14.788Z,80.77
2019-04-30T20:40:57.826Z,80.79
2019-04-30T20:43:20.179Z,80.59
2019-04-30T20:45:50.851Z,80.60
2019-04-30T20:48:27.625Z,81.18
2019-04-30T20:51:01.081Z,81.51
2019-04-30T20:53:33.282Z,82.15
2019-04-30T20:56:09.290Z,82.35
2019-04-30T20:58:54.250Z,82.50
2019-04-30T21:01:14.554Z,82.55
2019-04-30T21:03:46.455Z,83.87
2019-04-30T21:06:19.841Z,84.26
2019-04-30T21:08:50.891Z,84.31
2019-04-30T21:11:21.550Z,84.80
2019-04-30T21:13:52.383Z,84.62
2019-04-30T21:16:23.045Z,85.33
2019-04-30T21:18:54.966Z,85.33
2019-04-30T21:21:28.777Z,84.87
2019-04-30T21:24:05.819Z,84.78
2019-04-30T21:26:36.626Z,85.19
2019-04-30T21:29:13.173Z,84.94
2019-04-30T21:31:58.718Z,85.14
2019-04-30T21:34:54.050Z,85.04
2019-04-30T21:37:24.972Z,85.10
2019-04-30T21:40:01.538Z,85.40
2019-04-30T21:42:42.373Z,85.62
2019-04-30T21:45:15.354Z,85.95
2019-04-30T21:47:56.191Z,85.90
2019-04-30T21:50:20.973Z,86.02
2019-04-30T21:52:53.519Z,86.96
2019-04-30T21:55:24.651Z,86.79
2019-04-30T21:57:56.250Z,87.57
2019-04-30T22:00:57.720Z,88.26
2019-04-30T22:03:29.630Z,87.78
2019-04-30T22:06:01.208Z,87.92
2019-04-30T22:08:32.035Z,88.37
2019-04-30T22:11:02.685Z,88.75
2019-04-30T22:13:33.488Z,88.99
2019-04-30T22:16:15.196Z,88.91
2019-04-30T22:18:45.949Z,89.44
2019-04-30T22:21:16.807Z,89.13
2019-04-30T22:23:51.872Z,89.69
2019-04-30T22:26:22.728Z,89.36
2019-04-30T22:29:00.400Z,89.30
2019-04-30T22:31:33.275Z,89.29
2019-04-30T22:34:03.931Z,89.08
2019-04-30T22:36:49.114Z,89.64
2019-04-30T22:39:39.554Z,90.07
2019-04-30T22:42:32.567Z,90.03
2019-04-30T22:45:09.244Z,90.22
2019-04-30T22:47:39.893Z,90.42
2019-04-30T22:50:12.264Z,90.79
2019-04-30T22:52:42.982Z,90.49
2019-04-30T22:55:21.463Z,90.63
2019-04-30T22:57:54.295Z,90.69
2019-04-30T23:00:43.765Z,90.79
2019-04-30T23:03:25.290Z,91.05
2019-04-30T23:06:04.986Z,91.56
2019-04-30T23:08:35.712Z,91.54
2019-04-30T23:11:07.168Z,91.68
2019-04-30T23:13:37.894Z,91.60
2019-04-30T23:16:09.137Z,91.48
2019-04-30T23:18:40.416Z,92.05
2019-04-30T23:21:11.942Z,92.70
2019-04-30T23:23:42.614Z,92.74
2019-04-30T23:26:22.476Z,92.08
2019-04-30T23:28:57.185Z,92.45
2019-04-30T23:31:33.605Z,92.61
2019-04-30T23:34:16.916Z,92.29
2019-04-30T23:36:36.751Z,92.46
2019-04-30T23:39:17.547Z,92.48
2019-04-30T23:41:48.429Z,92.79
2019-04-30T23:44:19.187Z,92.94
2019-04-30T23:46:54.058Z,93.63
2019-04-30T23:49:24.775Z,93.47
2019-04-30T23:51:57.488Z,93.30
2019-04-30T23:54:30.577Z,92.96
2019-04-30T23:57:04.313Z,93.27
2019-04-30T23:59:35.947Z,94.24
